Magra, California
Current Conditions -  °F | °C
As of 6:40 PM on Friday 28 Nov 2014 (Local Time) from KGOO Reporting Station
Overcast Overcast  
Wind Chill: 50°   Ceiling: 8500
Heat Index: 50°   Visibility: 10mi
Dew Point: 36°   Wind: 7mph
Humidity: 58%   Direction: 120°ESE
Pressure: 29.89"   Gusts: NA
Location:  39.1673°N, 120.867°W
Report Text: KGOO 290240Z AUTO 12006KT 10SM FEW060 OVC085 10/02 A2989 RMK AO1
Loading
Personal Weather Stations






























Interactive Weather Map New forecast layout! Learn more

10-Day Weather Forecast

Advertisements
Track Severe Weather on mobile